createdAt,value
2023-03-03T00:00:06.942Z,0.90
2023-03-03T00:06:14.978Z,0.80
2023-03-03T00:12:28.565Z,0.70
2023-03-03T00:18:40.661Z,0.70
2023-03-03T00:24:42.454Z,0.70
2023-03-03T00:30:44.186Z,0.70
2023-03-03T00:36:49.339Z,0.60
2023-03-03T00:43:01.137Z,0.60
2023-03-03T00:49:14.687Z,0.40
2023-03-03T00:55:16.558Z,0.40
2023-03-03T01:01:19.484Z,0.30
2023-03-03T01:07:26.254Z,0.40
2023-03-03T01:13:31.835Z,0.30
2023-03-03T01:19:33.640Z,0.20
2023-03-03T01:25:36.307Z,0.40
2023-03-03T01:31:38.260Z,0.30
2023-03-03T01:37:40.191Z,0.30
2023-03-03T01:43:47.704Z,0.20
2023-03-03T01:49:49.490Z,0.00
2023-03-03T01:55:53.540Z,0.10
2023-03-03T02:01:55.613Z,0.20
2023-03-03T02:07:57.545Z,0.10
2023-03-03T02:13:59.338Z,0.10
2023-03-03T02:20:12.726Z,0.10
2023-03-03T02:26:27.922Z,0.00
2023-03-03T02:32:35.243Z,0.00
2023-03-03T02:38:42.354Z,0.00
2023-03-03T02:44:44.747Z,-0.10
2023-03-03T02:50:46.763Z,-0.10
2023-03-03T02:56:48.755Z,-0.20
2023-03-03T03:02:51.100Z,-0.20
2023-03-03T03:08:55.520Z,-0.20
2023-03-03T03:14:57.639Z,0.00
2023-03-03T03:21:07.886Z,-0.10
2023-03-03T03:27:10.555Z,-0.10
2023-03-03T03:33:13.873Z,-0.20
2023-03-03T03:39:16.158Z,-0.30
2023-03-03T03:45:24.356Z,-0.40
2023-03-03T03:51:35.321Z,-0.30
2023-03-03T03:57:37.284Z,-0.40
2023-03-03T04:03:39.580Z,-0.30
2023-03-03T04:09:46.359Z,-0.50
2023-03-03T04:15:48.384Z,-0.50
2023-03-03T04:21:51.702Z,-0.60
2023-03-03T04:27:54.346Z,-0.50
2023-03-03T04:33:57.664Z,-0.50
2023-03-03T04:39:59.633Z,-0.50
2023-03-03T04:46:01.977Z,-0.60
2023-03-03T04:52:04.030Z,-0.50
2023-03-03T04:58:07.116Z,-0.50
2023-03-03T05:04:09.309Z,-0.50
2023-03-03T05:10:11.812Z,-0.50
2023-03-03T05:16:13.686Z,-0.50
2023-03-03T05:22:15.530Z,-0.50
2023-03-03T05:28:18.144Z,-0.50
2023-03-03T05:34:19.939Z,-0.50
2023-03-03T05:40:22.102Z,-0.60
2023-03-03T05:46:23.890Z,-0.60
2023-03-03T05:52:25.656Z,-0.70
2023-03-03T05:58:28.234Z,-0.70
2023-03-03T06:04:29.969Z,-0.70
2023-03-03T06:10:31.729Z,-0.70
2023-03-03T06:16:37.832Z,-0.60
2023-03-03T06:22:39.670Z,-0.50
2023-03-03T06:28:41.423Z,-0.50
2023-03-03T06:34:43.229Z,-0.50
2023-03-03T06:40:46.352Z,-0.40
2023-03-03T06:46:48.208Z,-0.40
2023-03-03T06:52:50.665Z,-0.40
2023-03-03T06:59:00.650Z,-0.20
2023-03-03T07:05:06.652Z,0.00
2023-03-03T07:11:12.786Z,-0.10
2023-03-03T07:17:18.558Z,-0.10
2023-03-03T07:23:32.500Z,-0.10
2023-03-03T07:29:35.700Z,0.00
2023-03-03T07:35:45.042Z,0.30
2023-03-03T07:41:46.943Z,0.40
2023-03-03T07:47:48.802Z,0.60
2023-03-03T07:53:52.306Z,0.40
2023-03-03T07:59:56.033Z,0.60
2023-03-03T08:05:58.057Z,0.70
2023-03-03T08:12:09.275Z,0.90
2023-03-03T08:18:26.866Z,0.80
2023-03-03T08:24:28.744Z,0.80
2023-03-03T08:30:32.083Z,1.00
2023-03-03T08:36:34.947Z,1.00
2023-03-03T08:42:36.885Z,1.30
2023-03-03T08:48:38.742Z,1.30
2023-03-03T08:54:40.538Z,1.30
2023-03-03T09:00:42.571Z,1.50
2023-03-03T09:06:44.394Z,1.60
2023-03-03T09:12:51.181Z,1.80
2023-03-03T09:18:52.945Z,1.70
2023-03-03T09:24:57.871Z,1.70
2023-03-03T09:31:02.973Z,1.60
2023-03-03T09:37:15.478Z,1.30
2023-03-03T09:43:38.782Z,1.70
2023-03-03T09:50:00.724Z,2.00
2023-03-03T09:56:29.733Z,2.30
2023-03-03T10:03:10.670Z,2.40
2023-03-03T10:09:31.044Z,2.20
2023-03-03T10:15:40.454Z,2.40
2023-03-03T10:21:54.239Z,2.50
2023-03-03T10:28:02.470Z,2.50
2023-03-03T10:34:50.097Z,2.60
2023-03-03T10:41:16.662Z,2.50
2023-03-03T10:47:45.582Z,2.50
2023-03-03T10:54:21.080Z,2.90
2023-03-03T11:00:45.375Z,3.10
2023-03-03T11:07:15.689Z,3.20
2023-03-03T11:13:46.991Z,2.80
2023-03-03T11:20:06.809Z,2.80
2023-03-03T11:26:34.393Z,3.00
2023-03-03T11:33:08.659Z,3.10
2023-03-03T11:39:28.530Z,3.00
2023-03-03T11:45:40.849Z,3.10
2023-03-03T11:52:17.366Z,3.40
2023-03-03T11:58:34.834Z,3.50
2023-03-03T12:04:47.447Z,3.60
2023-03-03T12:10:49.169Z,3.50
2023-03-03T12:16:59.581Z,3.50
2023-03-03T12:23:07.292Z,3.30
2023-03-03T12:29:26.315Z,3.60
2023-03-03T12:35:42.569Z,3.50
2023-03-03T12:42:05.391Z,3.70
2023-03-03T12:49:01.176Z,4.10
2023-03-03T12:55:22.964Z,3.60
2023-03-03T13:01:45.459Z,3.60
2023-03-03T13:08:18.385Z,3.90
2023-03-03T13:14:32.308Z,4.20
2023-03-03T13:20:49.287Z,3.90
2023-03-03T13:27:14.551Z,3.90
2023-03-03T13:33:37.142Z,4.00
2023-03-03T13:39:49.761Z,4.20
2023-03-03T13:46:17.903Z,4.10
2023-03-03T13:52:31.349Z,4.20
2023-03-03T13:59:02.218Z,4.00
2023-03-03T14:05:17.622Z,4.10
2023-03-03T14:12:02.694Z,4.10
2023-03-03T14:18:09.268Z,4.00
2023-03-03T14:24:22.032Z,4.20
2023-03-03T14:30:30.354Z,4.20
2023-03-03T14:36:36.691Z,4.00
2023-03-03T14:42:49.036Z,4.10
2023-03-03T14:48:53.505Z,4.20
2023-03-03T14:55:00.903Z,4.20
2023-03-03T15:01:34.780Z,4.10
2023-03-03T15:07:39.054Z,4.30
2023-03-03T15:13:40.981Z,4.30
2023-03-03T15:20:25.447Z,4.20
2023-03-03T15:26:56.617Z,4.20
2023-03-03T15:33:07.266Z,4.00
2023-03-03T15:40:00.399Z,4.00
2023-03-03T15:46:05.324Z,3.60
2023-03-03T15:52:39.094Z,3.80
2023-03-03T15:59:08.392Z,3.90
2023-03-03T16:05:34.284Z,3.90
2023-03-03T16:11:50.804Z,3.90
2023-03-03T16:18:07.595Z,3.80
2023-03-03T16:24:26.644Z,3.70
2023-03-03T16:30:45.243Z,3.60
2023-03-03T16:36:50.025Z,3.60
2023-03-03T16:43:15.014Z,3.60
2023-03-03T16:49:33.324Z,3.40
2023-03-03T16:56:00.013Z,3.00
2023-03-03T17:02:14.253Z,3.00
2023-03-03T17:08:44.035Z,2.80
2023-03-03T17:15:24.507Z,2.80
2023-03-03T17:21:44.337Z,2.70
2023-03-03T17:28:06.603Z,2.40
2023-03-03T17:34:52.490Z,2.00
2023-03-03T17:40:56.964Z,1.40
2023-03-03T17:47:04.887Z,0.80
2023-03-03T17:53:44.547Z,0.20
2023-03-03T18:00:12.511Z,-0.20
2023-03-03T18:06:41.620Z,-0.50
2023-03-03T18:13:02.947Z,-0.70
2023-03-03T18:19:52.475Z,-0.70
2023-03-03T18:26:01.597Z,-0.60
2023-03-03T18:32:19.665Z,-0.80
2023-03-03T18:38:34.609Z,-0.90
2023-03-03T18:44:36.661Z,-1.00
2023-03-03T18:50:44.931Z,-1.30
2023-03-03T18:57:12.766Z,-1.40
2023-03-03T19:03:47.912Z,-1.50
2023-03-03T19:09:57.263Z,-1.40
2023-03-03T19:16:46.998Z,-1.50
2023-03-03T19:22:52.052Z,-1.50
2023-03-03T19:29:21.491Z,-1.50
2023-03-03T19:35:51.412Z,-1.50
2023-03-03T19:42:21.579Z,-1.60
2023-03-03T19:48:45.431Z,-1.70
2023-03-03T19:55:25.015Z,-1.60
2023-03-03T20:01:40.716Z,-1.20
2023-03-03T20:08:00.866Z,-0.90
2023-03-03T20:14:12.811Z,-0.60
2023-03-03T20:20:39.382Z,-0.40
2023-03-03T20:26:56.096Z,-0.20
2023-03-03T20:33:26.363Z,0.00
2023-03-03T20:39:56.905Z,0.10
2023-03-03T20:46:08.323Z,0.30
2023-03-03T20:52:41.973Z,0.50
2023-03-03T20:59:15.804Z,0.60
2023-03-03T21:05:22.378Z,0.70
2023-03-03T21:11:30.376Z,0.70
2023-03-03T21:17:32.411Z,0.80
2023-03-03T21:23:55.980Z,0.80
2023-03-03T21:30:11.829Z,0.90
2023-03-03T21:36:38.322Z,1.00
2023-03-03T21:42:42.478Z,1.10
2023-03-03T21:48:44.296Z,1.10
2023-03-03T21:54:48.520Z,1.10
2023-03-03T22:00:50.332Z,1.00
2023-03-03T22:06:52.849Z,1.00
2023-03-03T22:12:54.987Z,1.10
2023-03-03T22:18:56.885Z,1.10
2023-03-03T22:24:58.645Z,1.10
2023-03-03T22:31:00.411Z,1.10
2023-03-03T22:37:02.187Z,1.10
2023-03-03T22:43:06.307Z,1.10
2023-03-03T22:49:08.076Z,1.20
2023-03-03T22:55:10.421Z,1.20
2023-03-03T23:01:12.261Z,1.30
2023-03-03T23:07:14.080Z,1.30
2023-03-03T23:13:16.090Z,1.30
2023-03-03T23:19:17.958Z,1.30
2023-03-03T23:25:20.353Z,1.30
2023-03-03T23:39:40.552Z,1.40
2023-03-03T23:45:42.384Z,1.30
2023-03-03T23:51:44.257Z,1.40
2023-03-03T23:57:46.071Z,1.40
